Time;durP1;ratioP1;P1;durP2;ratioP2;P2;SDS_P1;SDS_P2;PMS_P1;PMS_P2;Temp;Humidity;BMP_temperature;BMP_pressure;BME280_temperature;BME280_humidity;BME280_pressure;Samples;Min_cycle;Max_cycle;Signal;HPM_P1;HPM_P2
2021/09/03 00:01:40;;;;;;;;;;;14.70;99.50;;;;;;5045136;28;20589;-75
2021/09/03 00:04:05;;;;;;;;;;;14.70;99.50;;;;;;5099809;22;20012;-71
2021/09/03 00:06:31;;;;;;;;;;;14.70;99.50;;;;;;5046084;28;19917;-71
2021/09/03 00:08:56;;;;;;;;;;;14.60;99.40;;;;;;5047561;28;19946;-71
2021/09/03 00:11:22;;;;;;;;;;;14.60;99.40;;;;;;5049039;28;19913;-71
2021/09/03 00:13:47;;;;;;;;;;;14.60;99.50;;;;;;5048138;28;20354;-71
2021/09/03 00:16:13;;;;;;;;;;;14.50;99.60;;;;;;5037299;28;19936;-71
2021/09/03 00:18:39;;;;;;;;;;;14.50;99.60;;;;;;5037874;28;20414;-71
2021/09/03 00:21:04;;;;;;;;;;;14.40;99.60;;;;;;5037226;28;20019;-71
2021/09/03 00:23:29;;;;;;;;;;;14.40;99.70;;;;;;5039088;28;20382;-71
2021/09/03 00:25:55;;;;;;;;;;;14.30;99.70;;;;;;5035101;28;20785;-71
2021/09/03 00:28:20;;;;;;;;;;;14.30;99.60;;;;;;5038490;28;19925;-71
2021/09/03 00:30:46;;;;;;;;;;;14.30;99.60;;;;;;5033896;28;20045;-71
2021/09/03 00:33:11;;;;;;;;;;;14.30;99.60;;;;;;5035789;28;20372;-71
2021/09/03 00:35:37;;;;;;;;;;;14.30;99.60;;;;;;5035493;28;20319;-71
2021/09/03 00:38:02;;;;;;;;;;;14.20;99.60;;;;;;5038401;28;19917;-71
2021/09/03 00:40:28;;;;;;;;;;;14.20;99.70;;;;;;5038332;28;19928;-71
2021/09/03 00:42:53;;;;;;;;;;;14.20;99.70;;;;;;5039446;28;19995;-72
2021/09/03 00:45:18;;;;;;;;;;;14.20;99.70;;;;;;5036417;28;19913;-71
2021/09/03 00:47:44;;;;;;;;;;;14.10;99.70;;;;;;5037809;28;20756;-71
2021/09/03 00:50:10;;;;;;;;;;;14.20;99.70;;;;;;5039901;28;20387;-71
2021/09/03 00:52:36;;;;;;;;;;;14.10;99.90;;;;;;5032821;28;19913;-71
2021/09/03 00:55:01;;;;;;;;;;;14.10;99.80;;;;;;5038336;28;20394;-71
2021/09/03 00:57:27;;;;;;;;;;;14.10;99.70;;;;;;5038460;28;19967;-71
2021/09/03 00:59:54;;;;;;;;;;;14.10;99.80;;;;;;5038396;28;19920;-71
2021/09/03 01:02:20;;;;;;;;;;;14.10;99.80;;;;;;5035462;28;19960;-71
2021/09/03 01:04:46;;;;;;;;;;;14.00;99.90;;;;;;5037015;28;20367;-71
2021/09/03 01:07:11;;;;;;;;;;;14.00;99.80;;;;;;5037641;28;19913;-71
2021/09/03 01:09:37;;;;;;;;;;;14.00;99.80;;;;;;5035042;28;19924;-71
2021/09/03 01:12:02;;;;;;;;;;;14.00;99.80;;;;;;5035084;28;19920;-71
2021/09/03 01:14:28;;;;;;;;;;;14.00;99.80;;;;;;5036767;28;19917;-71
2021/09/03 01:16:53;;;;;;;;;;;13.90;99.90;;;;;;5038382;28;19964;-71
2021/09/03 01:19:18;;;;;;;;;;;13.90;99.90;;;;;;5038992;28;20339;-72
2021/09/03 01:21:53;;;;;;;;;;;13.90;99.90;;;;;;5036474;28;20009;-72
2021/09/03 01:24:19;;;;;;;;;;;13.90;99.90;;;;;;5037377;28;19982;-72
2021/09/03 01:26:45;;;;;;;;;;;13.90;99.90;;;;;;5035511;28;19952;-72
2021/09/03 01:29:12;;;;;;;;;;;13.90;99.90;;;;;;5034496;28;20011;-72
2021/09/03 01:31:37;;;;;;;;;;;13.80;99.90;;;;;;5035536;28;19921;-71
2021/09/03 01:34:03;;;;;;;;;;;13.80;99.90;;;;;;5036437;28;20276;-72
2021/09/03 01:36:28;;;;;;;;;;;13.80;99.90;;;;;;5034281;28;19975;-72
2021/09/03 01:38:54;;;;;;;;;;;13.80;99.90;;;;;;5036938;28;19924;-72
2021/09/03 01:41:20;;;;;;;;;;;13.80;99.90;;;;;;5036120;28;20359;-71
2021/09/03 01:43:45;;;;;;;;;;;13.70;99.90;;;;;;5037004;28;19916;-71
2021/09/03 01:46:10;;;;;;;;;;;13.70;99.90;;;;;;5035496;28;19959;-72
2021/09/03 01:48:36;;;;;;;;;;;13.70;99.90;;;;;;5037733;28;19921;-72
2021/09/03 01:51:01;;;;;;;;;;;13.70;99.90;;;;;;5034711;28;19913;-71
2021/09/03 01:53:27;;;;;;;;;;;13.70;99.90;;;;;;5036900;28;20019;-72
2021/09/03 01:55:52;;;;;;;;;;;13.60;99.90;;;;;;5036755;28;19988;-71
2021/09/03 01:58:18;;;;;;;;;;;13.60;99.90;;;;;;5038797;28;19956;-72
2021/09/03 02:00:43;;;;;;;;;;;13.60;99.90;;;;;;5035405;28;19920;-72
2021/09/03 02:03:09;;;;;;;;;;;13.60;99.90;;;;;;5035833;28;19912;-72
2021/09/03 02:05:34;;;;;;;;;;;13.60;99.90;;;;;;5036911;28;19928;-72
2021/09/03 02:07:59;;;;;;;;;;;13.60;99.90;;;;;;5017851;28;20240;-72
2021/09/03 02:10:25;;;;;;;;;;;13.60;99.90;;;;;;5035662;28;20410;-72
2021/09/03 02:12:50;;;;;;;;;;;13.60;99.90;;;;;;5037803;28;20272;-71
2021/09/03 02:15:16;;;;;;;;;;;13.60;99.90;;;;;;5035669;28;19988;-72
2021/09/03 02:17:41;;;;;;;;;;;13.60;99.90;;;;;;5036854;28;19912;-72
2021/09/03 02:20:08;;;;;;;;;;;13.50;99.90;;;;;;5035429;28;20329;-72
2021/09/03 02:22:33;;;;;;;;;;;13.50;99.90;;;;;;5035456;28;19932;-72
2021/09/03 02:24:59;;;;;;;;;;;13.50;99.90;;;;;;5036669;28;19921;-72
2021/09/03 02:27:24;;;;;;;;;;;13.50;99.90;;;;;;5035264;28;19913;-72
2021/09/03 02:29:50;;;;;;;;;;;13.50;99.90;;;;;;5036891;28;19924;-72
2021/09/03 02:32:19;;;;;;;;;;;13.40;99.90;;;;;;5033416;28;20280;-71
2021/09/03 02:34:45;;;;;;;;;;;13.40;99.90;;;;;;5036765;28;19917;-71
2021/09/03 02:37:10;;;;;;;;;;;13.40;99.90;;;;;;5036789;28;20299;-72
2021/09/03 02:39:36;;;;;;;;;;;13.40;99.90;;;;;;5037483;28;20359;-72
2021/09/03 02:42:01;;;;;;;;;;;13.40;99.90;;;;;;5036866;28;19916;-72
2021/09/03 02:44:26;;;;;;;;;;;13.40;99.90;;;;;;5031702;28;19921;-72
2021/09/03 02:46:52;;;;;;;;;;;13.30;99.90;;;;;;5036094;28;19955;-72
2021/09/03 02:49:17;;;;;;;;;;;13.30;99.90;;;;;;5037696;28;19928;-72
2021/09/03 02:51:43;;;;;;;;;;;13.30;99.90;;;;;;5034849;28;20004;-72
2021/09/03 02:54:08;;;;;;;;;;;13.20;99.90;;;;;;5038429;28;19921;-72
2021/09/03 02:56:33;;;;;;;;;;;13.20;99.90;;;;;;5041945;28;19948;-72
2021/09/03 02:58:59;;;;;;;;;;;13.20;99.90;;;;;;5038336;28;19944;-72
2021/09/03 03:01:24;;;;;;;;;;;13.20;99.90;;;;;;5035396;28;19917;-71
2021/09/03 03:03:50;;;;;;;;;;;13.20;99.90;;;;;;5040127;28;20019;-72
2021/09/03 03:06:15;;;;;;;;;;;13.20;99.90;;;;;;5040311;28;19924;-71
2021/09/03 03:08:41;;;;;;;;;;;13.10;99.90;;;;;;5040507;28;19917;-71
2021/09/03 03:11:06;;;;;;;;;;;13.10;99.90;;;;;;5039964;28;19921;-72
2021/09/03 03:13:31;;;;;;;;;;;13.10;99.90;;;;;;5037585;28;19920;-71
2021/09/03 03:15:57;;;;;;;;;;;13.10;99.90;;;;;;5036925;28;19921;-71
2021/09/03 03:18:23;;;;;;;;;;;13.10;99.90;;;;;;5039583;28;19940;-71
2021/09/03 03:20:49;;;;;;;;;;;13.10;99.90;;;;;;5041018;28;20015;-72
2021/09/03 03:23:14;;;;;;;;;;;13.00;99.90;;;;;;5040028;28;19967;-72
2021/09/03 03:25:40;;;;;;;;;;;13.00;99.90;;;;;;5040074;28;19913;-69
2021/09/03 03:28:05;;;;;;;;;;;13.10;99.90;;;;;;5041627;28;19995;-69
2021/09/03 03:30:31;;;;;;;;;;;13.40;99.90;;;;;;5039973;28;20014;-69
2021/09/03 03:32:56;;;;;;;;;;;13.60;99.90;;;;;;5040499;28;19913;-69
2021/09/03 03:35:22;;;;;;;;;;;13.60;99.90;;;;;;5039445;28;20003;-69
2021/09/03 03:37:48;;;;;;;;;;;13.90;99.90;;;;;;5041168;28;19920;-69
2021/09/03 03:40:14;;;;;;;;;;;14.20;99.90;;;;;;5041824;28;19913;-69
2021/09/03 03:42:39;;;;;;;;;;;14.50;99.90;;;;;;5040911;28;19952;-69
2021/09/03 03:45:05;;;;;;;;;;;14.60;99.90;;;;;;5040666;28;20430;-69
2021/09/03 03:47:30;;;;;;;;;;;14.80;99.80;;;;;;5039306;28;19917;-69
2021/09/03 03:49:56;;;;;;;;;;;14.80;99.70;;;;;;5041198;28;19982;-69
2021/09/03 03:52:21;;;;;;;;;;;14.80;99.50;;;;;;5041296;28;20985;-69
2021/09/03 03:54:47;;;;;;;;;;;14.90;99.40;;;;;;5040122;28;19921;-69
2021/09/03 03:57:12;;;;;;;;;;;15.00;99.20;;;;;;5038573;28;20836;-69
2021/09/03 03:59:37;;;;;;;;;;;15.10;99.10;;;;;;5040089;28;19920;-68
2021/09/03 04:02:03;;;;;;;;;;;15.00;98.70;;;;;;5032802;28;19920;-69
2021/09/03 04:04:29;;;;;;;;;;;14.90;98.60;;;;;;5033631;28;19917;-71
2021/09/03 04:06:54;;;;;;;;;;;14.80;98.50;;;;;;5039957;28;19921;-72
2021/09/03 04:09:19;;;;;;;;;;;14.50;98.40;;;;;;5041089;28;19921;-71
2021/09/03 04:11:47;;;;;;;;;;;14.10;98.70;;;;;;5039283;28;19913;-72
2021/09/03 04:14:12;;;;;;;;;;;13.80;99.10;;;;;;5037482;28;20372;-72
2021/09/03 04:16:38;;;;;;;;;;;13.60;99.40;;;;;;5038185;28;19970;-72
2021/09/03 04:19:04;;;;;;;;;;;13.40;99.70;;;;;;5038570;28;20291;-73
2021/09/03 04:21:30;;;;;;;;;;;13.30;99.90;;;;;;5039196;28;19921;-74
2021/09/03 04:23:55;;;;;;;;;;;13.20;99.90;;;;;;5037670;28;19917;-74
2021/09/03 04:26:20;;;;;;;;;;;13.10;99.90;;;;;;5037986;28;20320;-73
2021/09/03 04:28:46;;;;;;;;;;;13.00;99.90;;;;;;5035829;28;20323;-73
2021/09/03 04:31:11;;;;;;;;;;;13.00;99.90;;;;;;5035434;28;20014;-72
2021/09/03 04:33:37;;;;;;;;;;;13.00;99.90;;;;;;5035526;28;20362;-74
2021/09/03 04:36:02;;;;;;;;;;;12.90;99.90;;;;;;5037497;28;19913;-75
2021/09/03 04:38:30;;;;;;;;;;;12.90;99.90;;;;;;5040125;28;19932;-75
2021/09/03 04:40:56;;;;;;;;;;;12.90;99.90;;;;;;5053149;28;19957;-75
2021/09/03 04:43:21;;;;;;;;;;;12.90;99.90;;;;;;5037378;28;19948;-74
2021/09/03 04:45:47;;;;;;;;;;;12.90;99.90;;;;;;5052498;28;19916;-74
2021/09/03 04:48:13;;;;;;;;;;;12.90;99.90;;;;;;5038408;28;19917;-74
2021/09/03 04:50:39;;;;;;;;;;;12.80;99.90;;;;;;5033256;28;20007;-74
2021/09/03 04:53:04;;;;;;;;;;;12.80;99.90;;;;;;5037538;28;20418;-74
2021/09/03 04:55:30;;;;;;;;;;;12.80;99.90;;;;;;5036319;28;19921;-74
2021/09/03 04:57:55;;;;;;;;;;;12.80;99.90;;;;;;5037205;28;19992;-77
2021/09/03 05:00:22;;;;;;;;;;;12.90;99.90;;;;;;5027824;28;19913;-77
2021/09/03 05:02:48;;;;;;;;;;;13.00;99.90;;;;;;5035188;28;19917;-79
2021/09/03 05:05:14;;;;;;;;;;;13.00;99.90;;;;;;5052325;28;19917;-79
2021/09/03 05:07:39;;;;;;;;;;;12.90;99.90;;;;;;5036896;28;20139;-79
2021/09/03 05:10:06;;;;;;;;;;;12.90;99.90;;;;;;5038746;28;19917;-79
2021/09/03 05:12:31;;;;;;;;;;;12.80;99.90;;;;;;5036765;28;19913;-79
2021/09/03 05:14:57;;;;;;;;;;;12.80;99.90;;;;;;5038476;28;20292;-78
2021/09/03 05:17:22;;;;;;;;;;;12.80;99.90;;;;;;5038706;28;20433;-78
2021/09/03 05:19:48;;;;;;;;;;;12.80;99.90;;;;;;5039940;28;19931;-78
2021/09/03 05:22:14;;;;;;;;;;;12.70;99.90;;;;;;5022107;28;20402;-78
2021/09/03 05:24:39;;;;;;;;;;;12.70;99.90;;;;;;5039857;28;19913;-78
2021/09/03 05:27:04;;;;;;;;;;;12.70;99.90;;;;;;5038906;28;19913;-78
2021/09/03 05:29:30;;;;;;;;;;;12.70;99.90;;;;;;5036320;28;19921;-78
2021/09/03 05:31:55;;;;;;;;;;;12.70;99.90;;;;;;5039246;28;19919;-78
2021/09/03 05:34:21;;;;;;;;;;;12.70;99.90;;;;;;5038710;28;19916;-78
2021/09/03 05:36:46;;;;;;;;;;;12.70;99.90;;;;;;5038911;28;19913;-78
2021/09/03 05:39:12;;;;;;;;;;;12.80;99.90;;;;;;5039023;28;19905;-78
2021/09/03 05:41:37;;;;;;;;;;;12.80;99.90;;;;;;5053543;28;19913;-78
2021/09/03 05:44:03;;;;;;;;;;;12.90;99.90;;;;;;5037647;28;20279;-78
2021/09/03 05:46:28;;;;;;;;;;;12.90;99.90;;;;;;5034999;28;20263;-78
2021/09/03 05:48:53;;;;;;;;;;;12.90;99.90;;;;;;5036147;28;20008;-77
2021/09/03 05:51:20;;;;;;;;;;;13.00;99.90;;;;;;5038919;28;20021;-77
2021/09/03 05:53:45;;;;;;;;;;;13.00;99.90;;;;;;5038280;28;20003;-76
2021/09/03 05:56:11;;;;;;;;;;;13.00;99.90;;;;;;5037500;28;20046;-76
2021/09/03 05:58:36;;;;;;;;;;;13.10;99.90;;;;;;5037813;28;20372;-76
2021/09/03 06:01:02;;;;;;;;;;;13.10;99.90;;;;;;5039152;28;20331;-76
2021/09/03 06:03:28;;;;;;;;;;;13.10;99.90;;;;;;5033569;28;19979;-76
2021/09/03 06:05:53;;;;;;;;;;;13.20;99.90;;;;;;5030247;22;20028;-75
2021/09/03 06:08:20;;;;;;;;;;;13.30;99.90;;;;;;5006430;28;19928;-75
2021/09/03 06:10:45;;;;;;;;;;;13.30;99.90;;;;;;5005671;28;19914;-74
2021/09/03 06:13:11;;;;;;;;;;;13.40;99.90;;;;;;5004093;28;19921;-74
2021/09/03 06:15:36;;;;;;;;;;;13.40;99.90;;;;;;5004459;28;20036;-75
2021/09/03 06:18:01;;;;;;;;;;;13.40;99.90;;;;;;5004540;28;20375;-74
2021/09/03 06:20:27;;;;;;;;;;;13.50;99.90;;;;;;4999959;28;19913;-74
2021/09/03 06:22:52;;;;;;;;;;;13.60;99.90;;;;;;5005216;28;19917;-74
2021/09/03 06:25:18;;;;;;;;;;;13.60;99.90;;;;;;5004511;28;19979;-74
2021/09/03 06:27:43;;;;;;;;;;;13.70;99.90;;;;;;5008103;28;19921;-74
2021/09/03 06:30:09;;;;;;;;;;;13.80;99.90;;;;;;5010688;28;19925;-74
2021/09/03 06:32:35;;;;;;;;;;;13.90;99.90;;;;;;5010665;28;19988;-74
2021/09/03 06:35:01;;;;;;;;;;;13.90;99.90;;;;;;5008997;28;20376;-73
2021/09/03 06:37:28;;;;;;;;;;;13.90;99.90;;;;;;5024706;28;19929;-74
2021/09/03 06:39:54;;;;;;;;;;;14.00;99.90;;;;;;5011037;28;20335;-74
2021/09/03 06:42:20;;;;;;;;;;;14.10;99.90;;;;;;5005786;28;19917;-74
2021/09/03 06:44:45;;;;;;;;;;;14.20;99.90;;;;;;5008556;28;19913;-74
2021/09/03 06:47:12;;;;;;;;;;;14.20;99.90;;;;;;5009605;28;19917;-74
2021/09/03 06:49:38;;;;;;;;;;;14.30;99.90;;;;;;5009853;28;20293;-75
2021/09/03 06:52:04;;;;;;;;;;;14.40;99.90;;;;;;5009464;28;19961;-74
2021/09/03 06:54:31;;;;;;;;;;;14.40;99.90;;;;;;5007848;28;19913;-74
2021/09/03 06:56:57;;;;;;;;;;;14.50;99.90;;;;;;5008745;28;20363;-72
2021/09/03 06:59:22;;;;;;;;;;;14.50;99.90;;;;;;4999382;28;19914;-75
2021/09/03 07:01:48;;;;;;;;;;;14.70;99.90;;;;;;5005998;28;19920;-75
2021/09/03 07:04:13;;;;;;;;;;;14.70;99.90;;;;;;5005717;28;20060;-75
2021/09/03 07:06:39;;;;;;;;;;;14.70;99.90;;;;;;5009798;28;19921;-76
2021/09/03 07:09:05;;;;;;;;;;;14.80;99.90;;;;;;5002225;28;19917;-76
2021/09/03 07:11:31;;;;;;;;;;;14.80;99.90;;;;;;5007363;28;19918;-76
2021/09/03 07:13:57;;;;;;;;;;;14.80;99.90;;;;;;5007812;28;19929;-76
2021/09/03 07:16:23;;;;;;;;;;;14.90;99.90;;;;;;5001741;28;19921;-76
2021/09/03 07:18:48;;;;;;;;;;;14.90;99.90;;;;;;5006031;28;19914;-75
2021/09/03 07:21:14;;;;;;;;;;;14.90;99.90;;;;;;5007102;28;19913;-75
2021/09/03 07:23:39;;;;;;;;;;;15.00;99.90;;;;;;5010007;28;19913;-75
2021/09/03 07:26:04;;;;;;;;;;;15.10;99.90;;;;;;5000859;28;19921;-74
2021/09/03 07:28:30;;;;;;;;;;;15.10;99.90;;;;;;5011677;28;19922;-75
2021/09/03 07:30:55;;;;;;;;;;;15.20;99.90;;;;;;5007960;28;19972;-73
2021/09/03 07:33:21;;;;;;;;;;;15.40;99.90;;;;;;5010849;28;19956;-76
2021/09/03 07:35:46;;;;;;;;;;;15.50;99.80;;;;;;5005445;28;19968;-74
2021/09/03 07:38:12;;;;;;;;;;;15.40;99.80;;;;;;5001675;28;19921;-75
2021/09/03 07:40:38;;;;;;;;;;;15.40;99.80;;;;;;5007678;28;20361;-75
2021/09/03 07:43:07;;;;;;;;;;;15.50;99.90;;;;;;5007381;28;19917;-75
2021/09/03 07:45:37;;;;;;;;;;;15.70;99.80;;;;;;5007146;28;19918;-76
2021/09/03 07:48:04;;;;;;;;;;;15.80;99.60;;;;;;5008868;28;19917;-75
2021/09/03 07:50:30;;;;;;;;;;;15.80;99.50;;;;;;4990795;28;20462;-76
2021/09/03 07:52:56;;;;;;;;;;;15.80;99.60;;;;;;5007492;28;19921;-75
2021/09/03 07:55:21;;;;;;;;;;;16.00;99.50;;;;;;5007249;28;19968;-75
2021/09/03 07:57:47;;;;;;;;;;;16.10;99.50;;;;;;5008822;28;19914;-75
2021/09/03 08:00:12;;;;;;;;;;;16.20;99.40;;;;;;5001397;28;19948;-75
2021/09/03 08:02:38;;;;;;;;;;;16.20;99.20;;;;;;5004677;28;19979;-76
2021/09/03 08:05:05;;;;;;;;;;;16.30;99.30;;;;;;5005921;28;19925;-76
2021/09/03 08:07:30;;;;;;;;;;;16.40;99.20;;;;;;5006408;28;19918;-76
2021/09/03 08:09:56;;;;;;;;;;;16.40;99.10;;;;;;5007737;28;19928;-75
2021/09/03 08:12:21;;;;;;;;;;;16.40;99.10;;;;;;5004343;28;20351;-75
2021/09/03 08:14:47;;;;;;;;;;;16.60;99.00;;;;;;5008929;28;19924;-75
2021/09/03 08:17:12;;;;;;;;;;;16.60;98.90;;;;;;5007186;28;19936;-75
2021/09/03 08:19:38;;;;;;;;;;;16.70;99.00;;;;;;5005529;28;20522;-75
2021/09/03 08:22:04;;;;;;;;;;;16.80;99.10;;;;;;5009332;28;19909;-75
2021/09/03 08:24:29;;;;;;;;;;;16.90;99.00;;;;;;5006136;28;20022;-75
2021/09/03 08:26:55;;;;;;;;;;;17.20;98.70;;;;;;5009219;28;19929;-75
2021/09/03 08:29:20;;;;;;;;;;;17.30;98.60;;;;;;5005149;28;19921;-77
2021/09/03 08:31:46;;;;;;;;;;;17.40;98.40;;;;;;5005720;28;19924;-76
2021/09/03 08:34:11;;;;;;;;;;;17.40;98.30;;;;;;5007703;28;20340;-76
2021/09/03 08:36:36;;;;;;;;;;;17.50;98.20;;;;;;5007642;28;20138;-76
2021/09/03 08:39:02;;;;;;;;;;;17.50;97.90;;;;;;5006871;28;19960;-75
2021/09/03 08:41:28;;;;;;;;;;;17.40;97.90;;;;;;5008572;28;19917;-75
2021/09/03 08:43:57;;;;;;;;;;;17.40;97.90;;;;;;5007245;28;20196;-75
2021/09/03 08:46:32;;;;;;;;;;;17.50;98.00;;;;;;5010134;28;19914;-71
2021/09/03 08:49:00;;;;;;;;;;;17.60;98.00;;;;;;5004655;28;20044;-75
2021/09/03 08:51:25;;;;;;;;;;;17.70;97.90;;;;;;5006196;28;19917;-74
2021/09/03 08:53:50;;;;;;;;;;;17.90;97.90;;;;;;5007374;28;20432;-74
2021/09/03 08:56:17;;;;;;;;;;;17.90;97.60;;;;;;5001113;28;20394;-74
2021/09/03 08:58:43;;;;;;;;;;;17.90;97.30;;;;;;5024093;28;19940;-75
2021/09/03 09:01:09;;;;;;;;;;;18.00;97.60;;;;;;5004409;28;20399;-75
2021/09/03 09:03:38;;;;;;;;;;;18.20;97.20;;;;;;5004546;28;20028;-76
2021/09/03 09:06:04;;;;;;;;;;;18.20;96.80;;;;;;5005797;28;20315;-75
2021/09/03 09:08:30;;;;;;;;;;;18.30;97.10;;;;;;5008902;28;19927;-75
2021/09/03 09:11:00;;;;;;;;;;;18.40;96.60;;;;;;5021699;28;19929;-73
2021/09/03 09:13:27;;;;;;;;;;;18.40;96.60;;;;;;5006749;28;19917;-75
2021/09/03 09:15:59;;;;;;;;;;;18.40;96.20;;;;;;5000280;28;19917;-75
2021/09/03 09:18:31;;;;;;;;;;;18.30;95.70;;;;;;5006916;28;19913;-74
2021/09/03 09:21:16;;;;;;;;;;;18.30;96.10;;;;;;5002845;28;19967;-75
2021/09/03 09:23:51;;;;;;;;;;;18.20;96.10;;;;;;5005683;28;19921;-76
2021/09/03 09:26:18;;;;;;;;;;;18.30;96.40;;;;;;5008298;28;19920;-76
2021/09/03 09:28:44;;;;;;;;;;;18.50;96.10;;;;;;5004576;28;20014;-74
2021/09/03 09:31:09;;;;;;;;;;;18.60;96.20;;;;;;5005173;28;20427;-74
2021/09/03 09:33:35;;;;;;;;;;;18.70;96.00;;;;;;5002630;28;19913;-74
2021/09/03 09:36:01;;;;;;;;;;;18.90;95.60;;;;;;5004137;28;19924;-73
2021/09/03 09:38:28;;;;;;;;;;;18.90;95.60;;;;;;5005181;28;19920;-73
2021/09/03 09:40:54;;;;;;;;;;;18.80;95.30;;;;;;5005801;28;19913;-73
2021/09/03 09:43:24;;;;;;;;;;;18.80;95.40;;;;;;4999422;28;20063;-74
2021/09/03 09:46:08;;;;;;;;;;;18.80;95.30;;;;;;5008529;28;19924;-76
2021/09/03 09:48:52;;;;;;;;;;;18.70;95.30;;;;;;5006223;28;20044;-76
2021/09/03 09:51:28;;;;;;;;;;;18.90;95.70;;;;;;5008503;28;20017;-75
2021/09/03 09:54:00;;;;;;;;;;;19.10;95.40;;;;;;5004524;28;19924;-75
2021/09/03 09:56:27;;;;;;;;;;;19.20;95.20;;;;;;5008553;28;19960;-76
2021/09/03 09:58:54;;;;;;;;;;;19.30;95.10;;;;;;5003404;28;19924;-77
2021/09/03 10:01:20;;;;;;;;;;;19.40;94.80;;;;;;5021548;28;19913;-76
2021/09/03 10:03:47;;;;;;;;;;;19.40;94.60;;;;;;5004422;28;19932;-76
2021/09/03 10:06:14;;;;;;;;;;;19.50;94.80;;;;;;5003869;28;19918;-76
2021/09/03 10:08:40;;;;;;;;;;;19.50;94.90;;;;;;5020311;28;19925;-74
2021/09/03 10:11:05;;;;;;;;;;;19.60;94.60;;;;;;5007131;28;19917;-74
2021/09/03 10:13:31;;;;;;;;;;;19.60;94.00;;;;;;5003776;28;19917;-75
2021/09/03 10:15:58;;;;;;;;;;;19.60;93.60;;;;;;5004502;28;19956;-75
2021/09/03 10:18:23;;;;;;;;;;;19.50;93.50;;;;;;5003202;28;20004;-72
2021/09/03 10:20:49;;;;;;;;;;;19.50;93.70;;;;;;5005317;28;20329;-73
2021/09/03 10:23:33;;;;;;;;;;;19.50;93.80;;;;;;5000947;28;19926;-76
2021/09/03 10:25:58;;;;;;;;;;;19.70;94.10;;;;;;5004565;28;19928;-77
2021/09/03 10:28:27;;;;;;;;;;;19.80;93.80;;;;;;5005902;28;19922;-75
2021/09/03 10:31:10;;;;;;;;;;;20.00;93.80;;;;;;4999845;28;19914;-73
2021/09/03 10:33:37;;;;;;;;;;;20.10;93.30;;;;;;5005013;28;19925;-74
2021/09/03 10:36:03;;;;;;;;;;;20.20;93.30;;;;;;5004108;28;19913;-73
2021/09/03 10:38:30;;;;;;;;;;;20.10;92.50;;;;;;5004892;28;20012;-74
2021/09/03 10:40:55;;;;;;;;;;;20.00;92.80;;;;;;5003528;28;19930;-74
2021/09/03 10:43:38;;;;;;;;;;;20.00;93.00;;;;;;4994956;28;20427;-74
2021/09/03 10:46:03;;;;;;;;;;;20.10;93.40;;;;;;5006398;28;19920;-75
2021/09/03 10:48:31;;;;;;;;;;;20.20;93.30;;;;;;5006604;28;19917;-75
2021/09/03 10:50:57;;;;;;;;;;;20.40;93.20;;;;;;5006107;28;19947;-72
2021/09/03 10:53:26;;;;;;;;;;;20.60;93.10;;;;;;5006387;28;19929;-72
2021/09/03 10:55:58;;;;;;;;;;;20.60;92.10;;;;;;5003609;28;19924;-73
2021/09/03 10:58:36;;;;;;;;;;;20.60;92.10;;;;;;5008602;28;19910;-74
2021/09/03 11:01:16;;;;;;;;;;;20.70;92.20;;;;;;5002101;28;19920;-74
2021/09/03 11:03:44;;;;;;;;;;;20.70;91.50;;;;;;5005479;28;19913;-74
2021/09/03 11:06:14;;;;;;;;;;;20.70;91.30;;;;;;5003020;28;19957;-73
2021/09/03 11:08:40;;;;;;;;;;;20.60;91.50;;;;;;5006519;28;20368;-74
2021/09/03 11:11:24;;;;;;;;;;;20.60;91.80;;;;;;5005214;28;19922;-73
2021/09/03 11:13:50;;;;;;;;;;;20.60;91.80;;;;;;5003646;28;19920;-72
2021/09/03 11:16:32;;;;;;;;;;;20.70;92.00;;;;;;5008375;28;19943;-76
2021/09/03 11:19:02;;;;;;;;;;;20.70;91.70;;;;;;5007484;28;20301;-77
2021/09/03 11:21:31;;;;;;;;;;;20.90;91.80;;;;;;5005075;28;20000;-75
2021/09/03 11:23:56;;;;;;;;;;;21.00;91.90;;;;;;5002662;28;19980;-77
2021/09/03 11:26:22;;;;;;;;;;;21.10;91.00;;;;;;5007381;28;19964;-74
2021/09/03 11:28:47;;;;;;;;;;;21.00;91.40;;;;;;5005433;28;19927;-74
2021/09/03 11:31:13;;;;;;;;;;;21.10;91.50;;;;;;5009268;28;19909;-74
2021/09/03 11:33:44;;;;;;;;;;;21.30;90.70;;;;;;5006479;28;19944;-73
2021/09/03 11:36:09;;;;;;;;;;;21.50;90.80;;;;;;5007834;28;20366;-73
2021/09/03 11:38:35;;;;;;;;;;;21.60;90.60;;;;;;5007564;28;20000;-75
2021/09/03 11:41:07;;;;;;;;;;;21.70;90.80;;;;;;5008491;28;20016;-73
2021/09/03 11:43:32;;;;;;;;;;;21.70;90.10;;;;;;5006827;28;19997;-73
2021/09/03 11:45:58;;;;;;;;;;;21.70;89.10;;;;;;5008557;28;20023;-72
2021/09/03 11:48:23;;;;;;;;;;;21.80;89.90;;;;;;5005506;28;19925;-72
2021/09/03 11:50:49;;;;;;;;;;;21.80;90.10;;;;;;5002057;28;19918;-73
2021/09/03 11:53:22;;;;;;;;;;;21.90;89.10;;;;;;5005699;28;20329;-72
2021/09/03 11:55:48;;;;;;;;;;;22.00;88.20;;;;;;5008566;28;20004;-74
2021/09/03 11:58:18;;;;;;;;;;;22.00;88.00;;;;;;5001808;28;19925;-74
2021/09/03 12:00:44;;;;;;;;;;;22.00;87.00;;;;;;5007038;28;19921;-73
2021/09/03 12:03:11;;;;;;;;;;;22.10;86.00;;;;;;5000997;28;19917;-72
2021/09/03 12:05:37;;;;;;;;;;;22.00;85.80;;;;;;5022390;23;19933;-65
2021/09/03 12:08:04;;;;;;;;;;;21.90;87.10;;;;;;5022312;28;19932;-64
2021/09/03 12:10:34;;;;;;;;;;;22.00;86.90;;;;;;5020338;28;19923;-65
2021/09/03 12:13:09;;;;;;;;;;;22.10;87.70;;;;;;4987722;28;19918;-64
2021/09/03 12:15:35;;;;;;;;;;;22.30;87.50;;;;;;4999470;28;19920;-64
2021/09/03 12:18:01;;;;;;;;;;;22.50;85.70;;;;;;4988689;28;19914;-65
2021/09/03 12:20:28;;;;;;;;;;;22.40;86.10;;;;;;4988168;28;19918;-64
2021/09/03 12:22:55;;;;;;;;;;;22.60;84.80;;;;;;4981959;28;20406;-64
2021/09/03 12:25:34;;;;;;;;;;;22.70;85.50;;;;;;4989163;28;20297;-65
2021/09/03 12:28:06;;;;;;;;;;;22.80;82.90;;;;;;5004925;28;20001;-65
2021/09/03 12:30:31;;;;;;;;;;;22.80;83.00;;;;;;4992030;28;20173;-65
2021/09/03 12:33:16;;;;;;;;;;;22.70;82.50;;;;;;5015609;28;19917;-65
2021/09/03 12:35:43;;;;;;;;;;;22.60;81.20;;;;;;5019395;28;20298;-64
2021/09/03 12:38:08;;;;;;;;;;;22.40;78.80;;;;;;5005392;28;19910;-65
2021/09/03 12:40:34;;;;;;;;;;;22.20;80.90;;;;;;4993481;28;19921;-64
2021/09/03 12:42:59;;;;;;;;;;;22.30;82.00;;;;;;4987980;28;19921;-66
2021/09/03 12:45:40;;;;;;;;;;;22.40;81.60;;;;;;4989917;28;19914;-65
2021/09/03 12:48:05;;;;;;;;;;;22.40;79.50;;;;;;5007266;28;19953;-65
2021/09/03 12:50:32;;;;;;;;;;;22.40;79.00;;;;;;4995751;28;19961;-64
2021/09/03 12:52:57;;;;;;;;;;;22.50;80.50;;;;;;5005787;28;19917;-65
2021/09/03 12:55:22;;;;;;;;;;;22.50;80.60;;;;;;4997455;28;19959;-65
2021/09/03 12:57:48;;;;;;;;;;;22.50;80.00;;;;;;5002761;28;19909;-65
2021/09/03 13:00:13;;;;;;;;;;;22.50;81.00;;;;;;4992535;28;20000;-64
2021/09/03 13:02:39;;;;;;;;;;;22.70;80.50;;;;;;5001638;28;20016;-64
2021/09/03 13:05:04;;;;;;;;;;;22.80;79.20;;;;;;5000797;28;20418;-64
2021/09/03 13:07:30;;;;;;;;;;;22.70;77.20;;;;;;5000181;28;19916;-64
2021/09/03 13:09:57;;;;;;;;;;;22.70;78.90;;;;;;4988974;28;19968;-64
2021/09/03 13:12:22;;;;;;;;;;;22.90;79.00;;;;;;5005471;28;20003;-64
2021/09/03 13:14:48;;;;;;;;;;;23.00;78.80;;;;;;5003827;28;19965;-64
2021/09/03 13:17:13;;;;;;;;;;;23.00;77.40;;;;;;4988334;28;20282;-64
2021/09/03 13:19:39;;;;;;;;;;;23.00;78.60;;;;;;4988252;28;19914;-65
2021/09/03 13:22:04;;;;;;;;;;;23.10;78.10;;;;;;4986653;28;19916;-65
2021/09/03 13:24:30;;;;;;;;;;;23.10;78.30;;;;;;4997556;28;20651;-65
2021/09/03 13:26:56;;;;;;;;;;;23.20;78.30;;;;;;4987155;28;19914;-65
2021/09/03 13:29:21;;;;;;;;;;;23.20;74.40;;;;;;4988144;28;19918;-65
2021/09/03 13:31:47;;;;;;;;;;;23.00;74.50;;;;;;4986103;28;19969;-65
2021/09/03 13:34:12;;;;;;;;;;;22.90;75.10;;;;;;4987106;28;20085;-65
2021/09/03 13:36:38;;;;;;;;;;;22.80;74.00;;;;;;4987128;28;20378;-65
2021/09/03 13:39:05;;;;;;;;;;;22.80;74.80;;;;;;5017374;28;20771;-65
2021/09/03 13:41:31;;;;;;;;;;;22.80;75.20;;;;;;4993473;28;19914;-65
2021/09/03 13:43:57;;;;;;;;;;;22.90;74.80;;;;;;5001368;28;20270;-65
2021/09/03 13:46:22;;;;;;;;;;;23.00;75.00;;;;;;4998510;28;20000;-65
2021/09/03 13:48:48;;;;;;;;;;;22.90;76.00;;;;;;5006864;28;20353;-66
2021/09/03 13:51:14;;;;;;;;;;;23.00;76.50;;;;;;4997054;28;19914;-65
2021/09/03 13:53:40;;;;;;;;;;;23.10;74.80;;;;;;4985948;28;19968;-65
2021/09/03 13:56:05;;;;;;;;;;;23.00;74.80;;;;;;4987726;28;20013;-65
2021/09/03 13:58:31;;;;;;;;;;;23.00;75.00;;;;;;4991424;28;19963;-65
2021/09/03 14:00:56;;;;;;;;;;;23.00;75.20;;;;;;4987617;28;19918;-65
2021/09/03 14:03:22;;;;;;;;;;;23.20;75.40;;;;;;4997368;28;19957;-65
2021/09/03 14:05:48;;;;;;;;;;;23.20;74.90;;;;;;5002549;28;19921;-65
2021/09/03 14:08:13;;;;;;;;;;;23.20;74.10;;;;;;4994826;28;20008;-65
2021/09/03 14:10:39;;;;;;;;;;;23.30;75.20;;;;;;4996645;28;19968;-65
2021/09/03 14:13:04;;;;;;;;;;;23.30;74.80;;;;;;4985758;28;19910;-65